Skip to main content.
Our real time weather data display below is updated continuously via our 24/7 live data feed.
 TIME   TEMPERATURE   WINDSPEED   DIRECTION   HUMIDITY   BAROMETER   RAINFALL 
7:25 10.0°C (50.0°F) 5.6 kmh (3.5 mph) NW 87% 1019.0hPa (30.09 inHg) 0.0mm (0.00 in.)
6:25 11.0°C (51.8 °F) 7.4 kmh (4.6 mph) W 87% 1017.9hPa (30.06 inHg) 0.0mm (0.00 in.)
5:25 11.0°C (51.8 °F) 9.3 kmh (5.8 mph) W 93% 1017.9hPa (30.06 inHg) 0.0mm (0.00 in.)
4:25 11.0°C (51.8 °F) 9.3 kmh (5.8 mph) NW 93% 1017.9hPa (30.06 inHg) 0.0mm (0.00 in.)
3:25 12.0°C (53.6 °F) 5.6 kmh (3.5 mph) WNW 87% 1017.9hPa (30.06 inHg) 0.0mm (0.00 in.)
2:25 12.0°C (53.6 °F) 11.1 kmh (6.9 mph) WNW 93% 1017.9hPa (30.06 inHg) 0.0mm (0.00 in.)
1:25 12.0°C (53.6 °F) 14.8 kmh (9.2 mph) NW 93% 1017.9hPa (30.06 inHg) 0.0mm (0.00 in.)
0:25 13.0°C (55.4 °F) 20.4 kmh (12.7 mph) NW 87% 1017.9hPa (30.06 inHg) 0.0mm (0.00 in.)
23:25 13.0°C (55.4 °F) 20.4 kmh (12.7 mph) NW 81% 1017.9hPa (30.06 inHg) 0.0mm (0.00 in.)
22:25 14.0°C (57.2 °F) 22.2 kmh (13.8 mph) WNW 76% 1017.9hPa (30.06 inHg) 0.0mm (0.00 in.)
21:25 14.0°C (57.2 °F) 20.4 kmh (12.7 mph) WNW 76% 1017.9hPa (30.06 inHg) 0.0mm (0.00 in.)
20:25 14.0°C (57.2 °F) 25.9 kmh (16.1 mph) WNW 71% 1016.9hPa (30.03 inHg) 0.0mm (0.00 in.)
19:25 15.0°C (59.0 °F) 27.8 kmh (17.3 mph) WNW 72% 1016.9hPa (30.03 inHg) 0.0mm (0.00 in.)
18:25 16.0°C (60.8 °F) 33.3 kmh (20.7 mph) WNW 63% 1015.9hPa (30.00 inHg) 0.0mm (0.00 in.)
17:25 17.0°C (62.6 °F) 33.3 kmh (20.7 mph) WNW 63% 1015.9hPa (30.00 inHg) 0.0mm (0.00 in.)
16:25 18.0°C (64.4 °F) 31.5 kmh (19.6 mph) WNW 55% 1015.9hPa (30.00 inHg) 0.0mm (0.00 in.)
15:25 18.0°C (64.4 °F) 33.3 kmh (20.7 mph) WNW 59% 1015.9hPa (30.00 inHg) 0.0mm (0.00 in.)
14:25 19.0°C (66.2 °F) 31.5 kmh (19.6 mph) NW 55% 1015.9hPa (30.00 inHg) 0.0mm (0.00 in.)
13:25 19.0°C (66.2 °F) 27.8 kmh (17.3 mph) NW 52% 1016.9hPa (30.03 inHg) 0.0mm (0.00 in.)
12:25 18.0°C (64.4 °F) 27.8 kmh (17.3 mph) NNW 45% 1016.9hPa (30.03 inHg) 0.0mm (0.00 in.)
11:25 17.0°C (62.6 °F) 31.5 kmh (19.6 mph) NNW 55% 1016.9hPa (30.03 inHg) 0.0mm (0.00 in.)
10:25 17.0°C (62.6 °F) 27.8 kmh (17.3 mph) NW 59% 1016.9hPa (30.03 inHg) 0.0mm (0.00 in.)
9:25 15.0°C (59.0 °F) 25.9 kmh (16.1 mph) NW 67% 1016.9hPa (30.03 inHg) 0.0mm (0.00 in.)
8:25 13.0°C (55.4 °F) 22.2 kmh (13.8 mph) NW 76% 1015.9hPa (30.00 inHg) 0.0mm (0.00 in.)